Aviation Digital Data Service (ADDS)

Output produced by METARs form (0439 UTC 19 February 2019)
found at http://www.aviationweather.gov/metar/data/
 
METAR text: BGGH 190350Z AUTO 08020KT 9999NDV BKN120/// BKN140/// M00/M14 Q0983
Conditions at: BGGH (GODTHAB (PORT) , GL) observed 0350 UTC 19 February 2019
Temperature: 0.0°C (32°F)
Dewpoint: -14.0°C ( 7°F) [RH = 34%]
Pressure (altimeter): 29.03 inches Hg (983.0 mb)
Winds: from the E (80 degrees) at 23 MPH (20 knots; 10.3 m/s)
Visibility: missing
Ceiling: 12000 feet AGL
Clouds: broken clouds at 12000 feet AGL
broken clouds at 14000 feet AGL
Weather: no significant weather observed at this time

METAR text: BGGH 190250Z AUTO 08019KT 9999NDV SCT110/// BKN170/// M01/M12 Q0984
Conditions at: BGGH (GODTHAB (PORT) , GL) observed 0250 UTC 19 February 2019
Temperature: -1.0°C (30°F)
Dewpoint: -12.0°C (10°F) [RH = 43%]
Pressure (altimeter): 29.06 inches Hg (984.0 mb)
Winds: from the E (80 degrees) at 22 MPH (19 knots; 9.8 m/s)
Visibility: missing
Ceiling: 17000 feet AGL
Clouds: scattered clouds at 11000 feet AGL
broken clouds at 17000 feet AGL
Weather: no significant weather observed at this time

METAR text: BGGH 190150Z AUTO 09019KT 9999NDV BKN110/// M01/M12 Q0984
Conditions at: BGGH (GODTHAB (PORT) , GL) observed 0150 UTC 19 February 2019
Temperature: -1.0°C (30°F)
Dewpoint: -12.0°C (10°F) [RH = 43%]
Pressure (altimeter): 29.06 inches Hg (984.0 mb)
Winds: from the E (90 degrees) at 22 MPH (19 knots; 9.8 m/s)
Visibility: missing
Ceiling: 11000 feet AGL
Clouds: broken clouds at 11000 feet AGL
Weather: no significant weather observed at this time

METAR text: BGGH 190050Z AUTO 10023KT 9999NDV SCT120/// M01/M12 Q0985
Conditions at: BGGH (GODTHAB (PORT) , GL) observed 0050 UTC 19 February 2019
Temperature: -1.0°C (30°F)
Dewpoint: -12.0°C (10°F) [RH = 43%]
Pressure (altimeter): 29.08 inches Hg (985.0 mb)
Winds: from the E (100 degrees) at 26 MPH (23 knots; 11.8 m/s)
Visibility: missing
Ceiling: at least 12,000 feet AGL
Clouds: scattered clouds at 12000 feet AGL
Weather: no significant weather observed at this time

METAR text: BGGH 182350Z 10020KT 9999 DRSN BKN080 M01/M10 Q0985
Conditions at: BGGH (GODTHAB (PORT) , GL) observed 2350 UTC 18 February 2019
Temperature: -1.0°C (30°F)
Dewpoint: -10.0°C (14°F) [RH = 50%]
Pressure (altimeter): 29.08 inches Hg (985.0 mb)
Winds: from the E (100 degrees) at 23 MPH (20 knots; 10.3 m/s)
Visibility: 6 or more miles (10+ km)
Ceiling: 8000 feet AGL
Clouds: broken clouds at 8000 feet AGL
Weather: DRSN  (low drifting snow)

METAR text: BGGH 182250Z 10016KT 9999 DRSN BKN080 M00/M10 Q0985
Conditions at: BGGH (GODTHAB (PORT) , GL) observed 2250 UTC 18 February 2019
Temperature: 0.0°C (32°F)
Dewpoint: -10.0°C (14°F) [RH = 47%]
Pressure (altimeter): 29.08 inches Hg (985.0 mb)
Winds: from the E (100 degrees) at 18 MPH (16 knots; 8.2 m/s)
Visibility: 6 or more miles (10+ km)
Ceiling: 8000 feet AGL
Clouds: broken clouds at 8000 feet AGL
Weather: DRSN  (low drifting snow)

METAR text: BGGH 182150Z 10017KT 9999 DRSN BKN085 01/M10 Q0985
Conditions at: BGGH (GODTHAB (PORT) , GL) observed 2150 UTC 18 February 2019
Temperature: 1.0°C (34°F)
Dewpoint: -10.0°C (14°F) [RH = 44%]
Pressure (altimeter): 29.08 inches Hg (985.0 mb)
Winds: from the E (100 degrees) at 20 MPH (17 knots; 8.7 m/s)
Visibility: 6 or more miles (10+ km)
Ceiling: 8500 feet AGL
Clouds: broken clouds at 8500 feet AGL
Weather: DRSN  (low drifting snow)

METAR text: BGGH 182050Z 09020KT 9999 DRSN BKN100 00/M11 Q0985
Conditions at: BGGH (GODTHAB (PORT) , GL) observed 2050 UTC 18 February 2019
Temperature: 0.0°C (32°F)
Dewpoint: -11.0°C (12°F) [RH = 43%]
Pressure (altimeter): 29.08 inches Hg (985.0 mb)
Winds: from the E (90 degrees) at 23 MPH (20 knots; 10.3 m/s)
Visibility: 6 or more miles (10+ km)
Ceiling: 10000 feet AGL
Clouds: broken clouds at 10000 feet AGL
Weather: DRSN  (low drifting snow)

METAR text: BGGH 181950Z 10023KT 9999 DRSN FEW080 BKN200 M00/M11 Q0985
Conditions at: BGGH (GODTHAB (PORT) , GL) observed 1950 UTC 18 February 2019
Temperature: 0.0°C (32°F)
Dewpoint: -11.0°C (12°F) [RH = 43%]
Pressure (altimeter): 29.08 inches Hg (985.0 mb)
Winds: from the E (100 degrees) at 26 MPH (23 knots; 11.8 m/s)
Visibility: 6 or more miles (10+ km)
Ceiling: 20000 feet AGL
Clouds: few clouds at 8000 feet AGL
broken clouds at 20000 feet AGL
Weather: DRSN  (low drifting snow)

METAR text: BGGH 181850Z 08020KT 9999 FEW050 BKN200 M00/M10 Q0985
Conditions at: BGGH (GODTHAB (PORT) , GL) observed 1850 UTC 18 February 2019
Temperature: 0.0°C (32°F)
Dewpoint: -10.0°C (14°F) [RH = 47%]
Pressure (altimeter): 29.08 inches Hg (985.0 mb)
Winds: from the E (80 degrees) at 23 MPH (20 knots; 10.3 m/s)
Visibility: 6 or more miles (10+ km)
Ceiling: 20000 feet AGL
Clouds: few clouds at 5000 feet AGL
broken clouds at 20000 feet AGL
Weather: no significant weather observed at this time

METAR text: BGGH 181750Z 05011KT 9999 FEW050 BKN200 M01/M08 Q0986
Conditions at: BGGH (GODTHAB (PORT) , GL) observed 1750 UTC 18 February 2019
Temperature: -1.0°C (30°F)
Dewpoint: -8.0°C (18°F) [RH = 59%]
Pressure (altimeter): 29.11 inches Hg (986.0 mb)
Winds: from the NE (50 degrees) at 13 MPH (11 knots; 5.7 m/s)
Visibility: 6 or more miles (10+ km)
Ceiling: 20000 feet AGL
Clouds: few clouds at 5000 feet AGL
broken clouds at 20000 feet AGL
Weather: no significant weather observed at this time

METAR text: BGGH 181650Z 04013KT 9999 FEW050 M01/M06 Q0986
Conditions at: BGGH (GODTHAB (PORT) , GL) observed 1650 UTC 18 February 2019
Temperature: -1.0°C (30°F)
Dewpoint: -6.0°C (21°F) [RH = 69%]
Pressure (altimeter): 29.11 inches Hg (986.0 mb)
Winds: from the NE (40 degrees) at 15 MPH (13 knots; 6.7 m/s)
Visibility: 6 or more miles (10+ km)
Ceiling: at least 12,000 feet AGL
Clouds: few clouds at 5000 feet AGL
Weather: no significant weather observed at this time

METAR text: BGGH 181550Z 06015KT 9999 SCT120 M01/M06 Q0986
Conditions at: BGGH (GODTHAB (PORT) , GL) observed 1550 UTC 18 February 2019
Temperature: -1.0°C (30°F)
Dewpoint: -6.0°C (21°F) [RH = 69%]
Pressure (altimeter): 29.11 inches Hg (986.0 mb)
Winds: from the ENE (60 degrees) at 17 MPH (15 knots; 7.7 m/s)
Visibility: 6 or more miles (10+ km)
Ceiling: at least 12,000 feet AGL
Clouds: scattered clouds at 12000 feet AGL
Weather: no significant weather observed at this time

METAR text: BGGH 181450Z 06014KT 9999 FEW050 SCT090 M02/M06 Q0987
Conditions at: BGGH (GODTHAB (PORT) , GL) observed 1450 UTC 18 February 2019
Temperature: -2.0°C (28°F)
Dewpoint: -6.0°C (21°F) [RH = 74%]
Pressure (altimeter): 29.14 inches Hg (987.0 mb)
Winds: from the ENE (60 degrees) at 16 MPH (14 knots; 7.2 m/s)
Visibility: 6 or more miles (10+ km)
Ceiling: at least 12,000 feet AGL
Clouds: few clouds at 5000 feet AGL
scattered clouds at 9000 feet AGL
Weather: no significant weather observed at this time

METAR text: BGGH 181350Z 05014KT 9999 SCT060 BKN090 M03/M05 Q0987
Conditions at: BGGH (GODTHAB (PORT) , GL) observed 1350 UTC 18 February 2019
Temperature: -3.0°C (27°F)
Dewpoint: -5.0°C (23°F) [RH = 86%]
Pressure (altimeter): 29.14 inches Hg (987.0 mb)
Winds: from the NE (50 degrees) at 16 MPH (14 knots; 7.2 m/s)
Visibility: 6 or more miles (10+ km)
Ceiling: 9000 feet AGL
Clouds: scattered clouds at 6000 feet AGL
broken clouds at 9000 feet AGL
Weather: no significant weather observed at this time

METAR text: BGGH 181250Z 04011KT 9999 FEW050 SCT064 BKN093 M02/M06 Q0988
Conditions at: BGGH (GODTHAB (PORT) , GL) observed 1250 UTC 18 February 2019
Temperature: -2.0°C (28°F)
Dewpoint: -6.0°C (21°F) [RH = 74%]
Pressure (altimeter): 29.17 inches Hg (988.0 mb)
Winds: from the NE (40 degrees) at 13 MPH (11 knots; 5.7 m/s)
Visibility: 6 or more miles (10+ km)
Ceiling: 9300 feet AGL
Clouds: few clouds at 5000 feet AGL
scattered clouds at 6400 feet AGL
broken clouds at 9300 feet AGL
Weather: no significant weather observed at this time

METAR text: BGGH 181150Z 04013KT 9999 SCT055 BKN070 M03/M06 Q0988
Conditions at: BGGH (GODTHAB (PORT) , GL) observed 1150 UTC 18 February 2019
Temperature: -3.0°C (27°F)
Dewpoint: -6.0°C (21°F) [RH = 80%]
Pressure (altimeter): 29.17 inches Hg (988.0 mb)
Winds: from the NE (40 degrees) at 15 MPH (13 knots; 6.7 m/s)
Visibility: 6 or more miles (10+ km)
Ceiling: 7000 feet AGL
Clouds: scattered clouds at 5500 feet AGL
broken clouds at 7000 feet AGL
Weather: no significant weather observed at this time

METAR text: BGGH 181050Z 03010KT 9999 SCT054 OVC067 M03/M06 Q0988
Conditions at: BGGH (GODTHAB (PORT) , GL) observed 1050 UTC 18 February 2019
Temperature: -3.0°C (27°F)
Dewpoint: -6.0°C (21°F) [RH = 80%]
Pressure (altimeter): 29.17 inches Hg (988.0 mb)
Winds: from the NNE (30 degrees) at 12 MPH (10 knots; 5.1 m/s)
Visibility: 6 or more miles (10+ km)
Ceiling: 6700 feet AGL
Clouds: scattered clouds at 5400 feet AGL
overcast cloud deck at 6700 feet AGL
Weather: no significant weather observed at this time

METAR text: BGGH 180950Z 05012KT 9999 FEW054 BKN065 M04/M06 Q0988
Conditions at: BGGH (GODTHAB (PORT) , GL) observed 0950 UTC 18 February 2019
Temperature: -4.0°C (25°F)
Dewpoint: -6.0°C (21°F) [RH = 86%]
Pressure (altimeter): 29.17 inches Hg (988.0 mb)
Winds: from the NE (50 degrees) at 14 MPH (12 knots; 6.2 m/s)
Visibility: 6 or more miles (10+ km)
Ceiling: 6500 feet AGL
Clouds: few clouds at 5400 feet AGL
broken clouds at 6500 feet AGL
Weather: no significant weather observed at this time

METAR text: BGGH 180850Z AUTO 06012KT 9999NDV BKN069/// M04/M06 Q0988
Conditions at: BGGH (GODTHAB (PORT) , GL) observed 0850 UTC 18 February 2019
Temperature: -4.0°C (25°F)
Dewpoint: -6.0°C (21°F) [RH = 86%]
Pressure (altimeter): 29.17 inches Hg (988.0 mb)
Winds: from the ENE (60 degrees) at 14 MPH (12 knots; 6.2 m/s)
Visibility: missing
Ceiling: 6900 feet AGL
Clouds: broken clouds at 6900 feet AGL
Weather: no significant weather observed at this time

METAR text: BGGH 180750Z AUTO 10001KT 9999NDV OVC062/// M05/M06 Q0989
Conditions at: BGGH (GODTHAB (PORT) , GL) observed 0750 UTC 18 February 2019
Temperature: -5.0°C (23°F)
Dewpoint: -6.0°C (21°F) [RH = 93%]
Pressure (altimeter): 29.20 inches Hg (989.0 mb)
Winds: from the E (100 degrees) at 1 MPH (1 knots; 0.5 m/s)
Visibility: missing
Ceiling: 6200 feet AGL
Clouds: overcast cloud deck at 6200 feet AGL
Weather: no significant weather observed at this time

METAR text: BGGH 180650Z AUTO 16006KT 120V180 9999NDV BKN060/// M05/M07 Q0989
Conditions at: BGGH (GODTHAB (PORT) , GL) observed 0650 UTC 18 February 2019
Temperature: -5.0°C (23°F)
Dewpoint: -7.0°C (19°F) [RH = 86%]
Pressure (altimeter): 29.20 inches Hg (989.0 mb)
Winds: from the SSE (160 degrees) at 7 MPH (6 knots; 3.1 m/s)
Visibility: missing
Ceiling: 6000 feet AGL
Clouds: broken clouds at 6000 feet AGL
Weather: no significant weather observed at this time

METAR text: BGGH 180550Z AUTO 04008KT 9999NDV BKN032/// BKN130/// M05/M07 Q0989
Conditions at: BGGH (GODTHAB (PORT) , GL) observed 0550 UTC 18 February 2019
Temperature: -5.0°C (23°F)
Dewpoint: -7.0°C (19°F) [RH = 86%]
Pressure (altimeter): 29.20 inches Hg (989.0 mb)
Winds: from the NE (40 degrees) at 9 MPH (8 knots; 4.1 m/s)
Visibility: missing
Ceiling: 3200 feet AGL
Clouds: broken clouds at 3200 feet AGL
broken clouds at 13000 feet AGL
Weather: no significant weather observed at this time

METAR text: BGGH 180450Z AUTO 05005KT 020V080 9999NDV -SN OVC045/// M05/M06 Q0989
Conditions at: BGGH (GODTHAB (PORT) , GL) observed 0450 UTC 18 February 2019
Temperature: -5.0°C (23°F)
Dewpoint: -6.0°C (21°F) [RH = 93%]
Pressure (altimeter): 29.20 inches Hg (989.0 mb)
Winds: from the NE (50 degrees) at 6 MPH (5 knots; 2.6 m/s)
Visibility: missing
Ceiling: 4500 feet AGL
Clouds: overcast cloud deck at 4500 feet AGL
Weather: -SN  (light snow)

METAR text: BGGH 180350Z AUTO 04008KT 010V080 9999NDV -SG OVC037/// M04/M07 Q0989
Conditions at: BGGH (GODTHAB (PORT) , GL) observed 0350 UTC 18 February 2019
Temperature: -4.0°C (25°F)
Dewpoint: -7.0°C (19°F) [RH = 80%]
Pressure (altimeter): 29.20 inches Hg (989.0 mb)
Winds: from the NE (40 degrees) at 9 MPH (8 knots; 4.1 m/s)
Visibility: missing
Ceiling: 3700 feet AGL
Clouds: overcast cloud deck at 3700 feet AGL
Weather: -SG  (light snow grains)

METAR text: BGGH 180250Z AUTO 04010KT 9999NDV OVC058/// M05/M09 Q0990
Conditions at: BGGH (GODTHAB (PORT) , GL) observed 0250 UTC 18 February 2019
Temperature: -5.0°C (23°F)
Dewpoint: -9.0°C (16°F) [RH = 73%]
Pressure (altimeter): 29.23 inches Hg (990.0 mb)
Winds: from the NE (40 degrees) at 12 MPH (10 knots; 5.1 m/s)
Visibility: missing
Ceiling: 5800 feet AGL
Clouds: overcast cloud deck at 5800 feet AGL
Weather: no significant weather observed at this time

METAR text: BGGH 180150Z AUTO 05008KT 9999NDV OVC061/// M04/M10 Q0991
Conditions at: BGGH (GODTHAB (PORT) , GL) observed 0150 UTC 18 February 2019
Temperature: -4.0°C (25°F)
Dewpoint: -10.0°C (14°F) [RH = 63%]
Pressure (altimeter): 29.26 inches Hg (991.0 mb)
Winds: from the NE (50 degrees) at 9 MPH (8 knots; 4.1 m/s)
Visibility: missing
Ceiling: 6100 feet AGL
Clouds: overcast cloud deck at 6100 feet AGL
Weather: no significant weather observed at this time

METAR text: BGGH 180050Z AUTO 06009KT 9999NDV OVC057/// M05/M13 Q0992
Conditions at: BGGH (GODTHAB (PORT) , GL) observed 0050 UTC 18 February 2019
Temperature: -5.0°C (23°F)
Dewpoint: -13.0°C ( 9°F) [RH = 53%]
Pressure (altimeter): 29.29 inches Hg (992.0 mb)
Winds: from the ENE (60 degrees) at 10 MPH (9 knots; 4.6 m/s)
Visibility: missing
Ceiling: 5700 feet AGL
Clouds: overcast cloud deck at 5700 feet AGL
Weather: no significant weather observed at this time

METAR text: BGGH 172350Z AUTO 05013KT 9999NDV OVC068/// M06/M12 Q0993
Conditions at: BGGH (GODTHAB (PORT) , GL) observed 2350 UTC 17 February 2019
Temperature: -6.0°C (21°F)
Dewpoint: -12.0°C (10°F) [RH = 62%]
Pressure (altimeter): 29.32 inches Hg (993.0 mb)
Winds: from the NE (50 degrees) at 15 MPH (13 knots; 6.7 m/s)
Visibility: missing
Ceiling: 6800 feet AGL
Clouds: overcast cloud deck at 6800 feet AGL
Weather: no significant weather observed at this time

METAR text: BGGH 172250Z AUTO 05015KT 9999NDV OVC069/// M06/M11 Q0994
Conditions at: BGGH (GODTHAB (PORT) , GL) observed 2250 UTC 17 February 2019
Temperature: -6.0°C (21°F)
Dewpoint: -11.0°C (12°F) [RH = 68%]
Pressure (altimeter): 29.35 inches Hg (994.0 mb)
Winds: from the NE (50 degrees) at 17 MPH (15 knots; 7.7 m/s)
Visibility: missing
Ceiling: 6900 feet AGL
Clouds: overcast cloud deck at 6900 feet AGL
Weather: no significant weather observed at this time

METAR text: BGGH 172150Z AUTO 05012KT 9999NDV OVC070/// M06/M14 Q0995
Conditions at: BGGH (GODTHAB (PORT) , GL) observed 2150 UTC 17 February 2019
Temperature: -6.0°C (21°F)
Dewpoint: -14.0°C ( 7°F) [RH = 53%]
Pressure (altimeter): 29.38 inches Hg (995.0 mb)
Winds: from the NE (50 degrees) at 14 MPH (12 knots; 6.2 m/s)
Visibility: missing
Ceiling: 7000 feet AGL
Clouds: overcast cloud deck at 7000 feet AGL
Weather: no significant weather observed at this time

METAR text: BGGH 172050Z AUTO 05014KT 9999NDV OVC057/// M07/M13 Q0997
Conditions at: BGGH (GODTHAB (PORT) , GL) observed 2050 UTC 17 February 2019
Temperature: -7.0°C (19°F)
Dewpoint: -13.0°C ( 9°F) [RH = 62%]
Pressure (altimeter): 29.44 inches Hg (997.0 mb)
Winds: from the NE (50 degrees) at 16 MPH (14 knots; 7.2 m/s)
Visibility: missing
Ceiling: 5700 feet AGL
Clouds: overcast cloud deck at 5700 feet AGL
Weather: no significant weather observed at this time

METAR text: BGGH 171950Z AUTO 07015KT 9999NDV OVC065/// M07/M15 Q0998
Conditions at: BGGH (GODTHAB (PORT) , GL) observed 1950 UTC 17 February 2019
Temperature: -7.0°C (19°F)
Dewpoint: -15.0°C ( 5°F) [RH = 53%]
Pressure (altimeter): 29.47 inches Hg (998.0 mb)
Winds: from the ENE (70 degrees) at 17 MPH (15 knots; 7.7 m/s)
Visibility: missing
Ceiling: 6500 feet AGL
Clouds: overcast cloud deck at 6500 feet AGL
Weather: no significant weather observed at this time

METAR text: BGGH 171850Z AUTO 10002KT 9999NDV OVC060/// M07/M16 Q0999
Conditions at: BGGH (GODTHAB (PORT) , GL) observed 1850 UTC 17 February 2019
Temperature: -7.0°C (19°F)
Dewpoint: -16.0°C ( 3°F) [RH = 49%]
Pressure (altimeter): 29.50 inches Hg (999.0 mb)
Winds: from the E (100 degrees) at 2 MPH (2 knots; 1.0 m/s)
Visibility: missing
Ceiling: 6000 feet AGL
Clouds: overcast cloud deck at 6000 feet AGL
Weather: no significant weather observed at this time

METAR text: BGGH 171750Z AUTO 10002KT 9999NDV BKN080/// M07/M16 Q1000
Conditions at: BGGH (GODTHAB (PORT) , GL) observed 1750 UTC 17 February 2019
Temperature: -7.0°C (19°F)
Dewpoint: -16.0°C ( 3°F) [RH = 49%]
Pressure (altimeter): 29.53 inches Hg (1000.0 mb)
Winds: from the E (100 degrees) at 2 MPH (2 knots; 1.0 m/s)
Visibility: missing
Ceiling: 8000 feet AGL
Clouds: broken clouds at 8000 feet AGL
Weather: no significant weather observed at this time

METAR text: BGGH 171650Z VRB06KT 9999 DRSN BKN080 M07/M15 Q1001
Conditions at: BGGH (GODTHAB (PORT) , GL) observed 1650 UTC 17 February 2019
Temperature: -7.0°C (19°F)
Dewpoint: -15.0°C ( 5°F) [RH = 53%]
Pressure (altimeter): 29.56 inches Hg (1001.0 mb)
Winds: variable direction winds at 7 MPH (6 knots; 3.1 m/s)
Visibility: 6 or more miles (10+ km)
Ceiling: 8000 feet AGL
Clouds: broken clouds at 8000 feet AGL
Weather: DRSN  (low drifting snow)

Forecast for: AMD
Text: TAF AMD BGGH 182200Z 1821/1902 09018KT 9999 DRSN BKN085
Forecast period: 2100 UTC 18 February 2019 to 0200 UTC 19 February 2019
Forecast type: FROM: standard forecast or significant change
Winds: from the E (90 degrees) at 21 MPH (18 knots; 9.3 m/s)
Visibility: 6 or more miles 10+ km)
Ceiling: 8500 feet AGL
Clouds: broken clouds at 8500 feet AGL
Weather: DRSN  (low drifting snow)
Text: TEMPO 1821/1902 NSW BKN100
Forecast period: 2100 UTC 18 February 2019 to 0200 UTC 19 February 2019
Forecast type: TEMPORARY: The following changes expected for less than half the time period
Visibility: missing
Ceiling: 10000 feet AGL
Clouds: broken clouds at 10000 feet AGL
Weather: NSW  (no significant weather)